Winter Garden, FL

1:01 AM EST on January 27, 2015 (GMT -0500)
Independence | Change Station
CLOSE
Current Station
Personal Weather Station
Location: Winter Garden, FL
Elevation: 125 ft
Nearby Weather Stations

Elev 125 ft 28.47 °N, 81.61 °W | Updated 1 minute ago

Clear
Clear
47.8 °F
Feels Like 48 °F
N
2.0
Wind Variable Wind from West
Gusts 8.0 mph

Today
High -- | Low -- °F
--% Chance of Precip.
Yesterday
High -- | Low -- °F
Precip. -- in
7:16 AM 6:01 PM
Waxing Crescent, 50% visible
Pressure 29.97 in
Visibility 10.0 miles
Clouds Clear
Windchill 48 °F
Dew Point 40 °F
Humidity 75%
Rainfall 0.00 in
Snow Depth Not available.
UV 0 out of 12
Pollen 8.50 out of 12
Air Quality Not available.
Flu Activity Not available.
METAR KORL 270553Z AUTO 29009KT 10SM CLR 10/03 A2996 RMK AO2 SLP148 T01000033 10139 20100 50004

More Conditions Fewer Conditions

Pressure 29.97 in
Visibility 10.0 miles
Clouds Clear
Windchill 48 °F
Dew Point 40 °F
Humidity 75%
Rainfall 0.00 in
Snow Depth Not available.
UV 0 out of 12
Pollen 8.50 out of 12
Air Quality Not available.
Flu Activity Not available.
METAR KORL 270553Z AUTO 29009KT 10SM CLR 10/03 A2996 RMK AO2 SLP148 T01000033 10139 20100 50004

More Conditions Fewer Conditions

10-Day Weather Forecast

Almanac

Astronomy

Jan. 27, 2015 Rise Set
Actual Time
Civil Twilight
Nautical Twilight
Astronomical Twilight
Moon
Length of Visible Light
Length of Day
Tomorrow will be .
, % of the Moon is Illuminated

Today's Extremes

State Highs State Lows

Community

WunderPhotos

Upload Photos

1,790,542 photos uploaded!

WunderBlogs® & News

Nearby

Air Quality

  Air Quality AQ Index Pollutant
Not available.

Snow Depth

Station Depth Elevation

Earthquake Activity

City Distance Mag. Time & Date
Minimum magnitude displayed is 2.5.

Coastal Water Temperatures

Place Temperature

Nearby Weather Stations